CheckWX is a tool to help pilots better visualize weather data.  It is not intended as a substitute for an official pre-flight weather briefing.

05:21:04 UTC

CYJT METAR
Stephenville Airport
Stephenville, Canada
Current

21 mins ago

CYJT 200500Z 32017G32KT 12SM DRSN BKN026 M14/M21 A2982 RMK SC5 SLP102
Observed
Feb-20 @ 05:00 UTC
Wind
  • 320° at 17 KTS
  • Gusting to 32 KTS
Visibility
19,312 meters
Flight Rules
MVFR
Conditions
Low drifting Snow
Cloud Levels
  • Broken at 2,600' AGL
Temperature
-14°C / 7°F
Dewpoint
-21°C / -6°F
Humidity
56%
Altimeter
29.82" Hg
Pressure
1010.2 hPa
Previous

1 hour ago

CYJT 200400Z 33018G30KT 280V340 12SM R27/5000VP6000FT/U DRSN BKN026 M13/M19 A2981 RMK SC5 SLP097
Observed
Feb-20 @ 04:00 UTC
Wind
  • 330° at 18 KTS
  • Gusting to 30 KTS
Visibility
19,312 meters
Flight Rules
MVFR
Conditions
Low drifting Snow
Cloud Levels
  • Broken at 2,600' AGL
Temperature
-13°C / 9°F
Dewpoint
-19°C / -2°F
Humidity
61%
Altimeter
29.81" Hg
Pressure
1009.7 hPa
Previous

2 hours ago

CYJT 200300Z 32020G31KT 12SM R27/4000VP6000FT/D DRSN BKN023 M12/M19 A2979 RMK SC7 SLP090
Observed
Feb-20 @ 03:00 UTC
Wind
  • 320° at 20 KTS
  • Gusting to 31 KTS
Visibility
19,312 meters
Flight Rules
MVFR
Conditions
Low drifting Snow
Cloud Levels
  • Broken at 2,300' AGL
Temperature
-12°C / 10°F
Dewpoint
-19°C / -2°F
Humidity
56%
Altimeter
29.79" Hg
Pressure
1009 hPa